Time,TemperatureF,DewpointF,PressureIn,WindDirection,WindDirectionDegrees,WindSpeedMPH,WindSpeedGustMPH,Humidity,HourlyPrecipIn,Conditions,Clouds,dailyrainin,SoftwareType,DateUTC
2013-07-19 00:00:00,83.6,71.5,29.84,West,273,1.0,12.0,67,0.00,,---,0.00,VWS V14.01,2013-07-19 04:00:00,
2013-07-19 00:01:00,82.6,71.4,29.83,ESE,120,2.0,5.0,69,0.00,,---,0.00,VWS V14.01,2013-07-19 04:01:00,
2013-07-19 00:02:00,82.6,71.4,29.83,SW,227,2.0,8.0,69,0.00,,---,0.00,VWS V14.01,2013-07-19 04:02:00,
2013-07-19 00:07:00,82.4,71.2,29.83,South,185,5.0,8.0,69,0.00,,---,0.00,VWS V14.01,2013-07-19 04:07:00,
2013-07-19 00:12:00,82.5,71.3,29.83,SSW,212,1.0,9.0,69,0.00,,---,0.00,VWS V14.01,2013-07-19 04:12:00,
2013-07-19 00:17:00,82.4,71.2,29.83,SSE,162,3.0,10.0,69,0.00,,---,0.00,VWS V14.01,2013-07-19 04:17:00,
2013-07-19 00:22:00,82.2,71.0,29.83,South,184,4.0,11.0,69,0.00,,---,0.00,VWS V14.01,2013-07-19 04:22:00,
2013-07-19 00:27:00,82.2,71.0,29.83,South,178,5.0,11.0,69,0.00,,---,0.00,VWS V14.01,2013-07-19 04:27:00,
2013-07-19 00:30:00,83.0,71.4,29.83,SW,221,2.0,12.0,68,0.00,,---,0.00,VWS V14.01,2013-07-19 04:30:00,
2013-07-19 00:32:00,82.2,71.0,29.82,South,177,5.0,11.0,69,0.00,,---,0.00,VWS V14.01,2013-07-19 04:32:00,
2013-07-19 00:37:00,82.3,71.1,29.82,SW,233,1.0,11.0,69,0.00,,---,0.00,VWS V14.01,2013-07-19 04:37:00,
2013-07-19 00:42:00,82.2,71.0,29.82,WSW,254,7.0,15.0,69,0.00,,---,0.00,VWS V14.01,2013-07-19 04:42:00,
2013-07-19 00:47:00,82.1,70.9,29.82,West,276,5.0,15.0,69,0.00,,---,0.00,VWS V14.01,2013-07-19 04:47:00,
2013-07-19 00:52:00,82.0,70.8,29.82,SW,223,9.0,15.0,69,0.00,,---,0.00,VWS V14.01,2013-07-19 04:52:00,
2013-07-19 00:57:00,82.1,70.9,29.81,SSE,158,5.0,16.0,69,0.00,,---,0.00,VWS V14.01,2013-07-19 04:57:00,
2013-07-19 01:00:00,82.6,71.4,29.83,SSE,161,5.0,11.0,69,0.00,,---,0.00,VWS V14.01,2013-07-19 05:00:00,
2013-07-19 01:02:00,82.1,70.9,29.81,SSW,206,1.0,10.0,69,0.00,,---,0.00,VWS V14.01,2013-07-19 05:02:00,
2013-07-19 01:07:00,82.1,70.9,29.81,West,263,2.0,11.0,69,0.00,,---,0.00,VWS V14.01,2013-07-19 05:07:00,
2013-07-19 01:12:00,81.9,71.2,29.81,SSW,203,6.0,11.0,70,0.00,,---,0.00,VWS V14.01,2013-07-19 05:12:00,
2013-07-19 01:17:00,81.8,71.1,29.81,South,183,13.0,13.0,70,0.00,,---,0.00,VWS V14.01,2013-07-19 05:17:00,
2013-07-19 01:22:00,82.1,70.9,29.81,WSW,257,6.0,13.0,69,0.00,,---,0.00,VWS V14.01,2013-07-19 05:22:00,
2013-07-19 01:27:00,82.1,70.9,29.81,South,183,9.0,14.0,69,0.00,,---,0.00,VWS V14.01,2013-07-19 05:27:00,
2013-07-19 01:30:00,82.3,71.1,29.83,South,189,5.0,12.0,69,0.00,,---,0.00,VWS V14.01,2013-07-19 05:30:00,
2013-07-19 01:32:00,81.9,71.2,29.80,SSW,202,6.0,10.0,70,0.00,,---,0.00,VWS V14.01,2013-07-19 05:32:00,
2013-07-19 01:37:00,81.8,71.1,29.80,West,268,4.0,11.0,70,0.00,,---,0.00,VWS V14.01,2013-07-19 05:37:00,
2013-07-19 01:42:00,81.9,71.2,29.81,SW,224,4.0,11.0,70,0.00,,---,0.00,VWS V14.01,2013-07-19 05:42:00,
2013-07-19 01:47:00,81.7,71.0,29.81,South,173,1.0,12.0,70,0.00,,---,0.00,VWS V14.01,2013-07-19 05:47:00,
2013-07-19 01:52:00,81.7,71.0,29.80,West,266,2.0,12.0,70,0.00,,---,0.00,VWS V14.01,2013-07-19 05:52:00,
2013-07-19 01:57:00,81.7,71.0,29.80,West,259,5.0,12.0,70,0.00,,---,0.00,VWS V14.01,2013-07-19 05:57:00,
2013-07-19 02:00:00,82.1,70.9,29.81,SSW,194,5.0,16.0,69,0.00,,---,0.00,VWS V14.01,2013-07-19 06:00:00,
2013-07-19 02:02:00,81.7,71.0,29.80,SSE,158,2.0,11.0,70,0.00,,---,0.00,VWS V14.01,2013-07-19 06:02:00,
2013-07-19 02:07:00,81.7,71.0,29.80,WSW,241,6.0,11.0,70,0.00,,---,0.00,VWS V14.01,2013-07-19 06:07:00,
2013-07-19 02:12:00,81.7,71.0,29.80,WNW,295,1.0,11.0,70,0.00,,---,0.00,VWS V14.01,2013-07-19 06:12:00,
2013-07-19 02:17:00,81.5,70.8,29.80,SSE,147,1.0,14.0,70,0.00,,---,0.00,VWS V14.01,2013-07-19 06:17:00,
2013-07-19 02:22:00,81.5,70.8,29.80,South,184,2.0,14.0,70,0.00,,---,0.00,VWS V14.01,2013-07-19 06:22:00,
2013-07-19 02:27:00,81.5,70.8,29.80,WSW,248,2.0,14.0,70,0.00,,---,0.00,VWS V14.01,2013-07-19 06:27:00,
2013-07-19 02:30:00,82.1,70.9,29.81,SW,219,2.0,14.0,69,0.00,,---,0.00,VWS V14.01,2013-07-19 06:30:00,
2013-07-19 02:32:00,81.5,71.2,29.79,SSW,210,4.0,9.0,71,0.00,,---,0.00,VWS V14.01,2013-07-19 06:32:00,
2013-07-19 02:37:00,81.5,71.2,29.79,SW,216,4.0,9.0,71,0.00,,---,0.00,VWS V14.01,2013-07-19 06:37:00,
2013-07-19 02:42:00,81.3,71.0,29.79,West,261,2.0,9.0,71,0.00,,---,0.00,VWS V14.01,2013-07-19 06:42:00,
2013-07-19 02:47:00,81.3,71.4,29.79,WNW,283,2.0,9.0,72,0.00,,---,0.00,VWS V14.01,2013-07-19 06:47:00,
2013-07-19 02:52:00,81.3,71.0,29.78,SW,218,0.0,10.0,71,0.00,,---,0.00,VWS V14.01,2013-07-19 06:52:00,
2013-07-19 02:57:00,81.3,71.4,29.78,SW,228,4.0,10.0,72,0.00,,---,0.00,VWS V14.01,2013-07-19 06:57:00,
2013-07-19 03:00:00,81.7,71.0,29.80,SW,226,2.0,12.0,70,0.00,,---,0.00,VWS V14.01,2013-07-19 07:00:00,
2013-07-19 03:03:00,81.3,71.4,29.78,SW,219,1.0,7.0,72,0.00,,---,0.00,VWS V14.01,2013-07-19 07:03:00,
2013-07-19 03:07:00,81.1,71.2,29.78,SW,229,4.0,8.0,72,0.00,,---,0.00,VWS V14.01,2013-07-19 07:07:00,
2013-07-19 03:13:00,81.1,71.2,29.77,South,189,4.0,10.0,72,0.00,,---,0.00,VWS V14.01,2013-07-19 07:13:00,
2013-07-19 03:18:00,81.1,71.2,29.77,SSW,192,0.0,10.0,72,0.00,,---,0.00,VWS V14.01,2013-07-19 07:18:00,
2013-07-19 03:23:00,81.1,71.2,29.77,SSW,206,5.0,10.0,72,0.00,,---,0.00,VWS V14.01,2013-07-19 07:23:00,
2013-07-19 03:28:00,81.1,71.2,29.77,SSW,201,4.0,10.0,72,0.00,,---,0.00,VWS V14.01,2013-07-19 07:28:00,
2013-07-19 03:30:00,81.5,71.2,29.80,NW,318,2.0,14.0,71,0.00,,---,0.00,VWS V14.01,2013-07-19 07:30:00,
2013-07-19 03:33:00,81.1,71.2,29.76,WSW,252,0.0,7.0,72,0.00,,---,0.00,VWS V14.01,2013-07-19 07:33:00,
2013-07-19 03:38:00,81.1,71.2,29.76,SW,233,9.0,9.0,72,0.00,,---,0.00,VWS V14.01,2013-07-19 07:38:00,
2013-07-19 03:43:00,81.3,71.0,29.76,WSW,250,5.0,10.0,71,0.00,,---,0.00,VWS V14.01,2013-07-19 07:43:00,
2013-07-19 03:48:00,81.3,71.0,29.76,WNW,300,1.0,12.0,71,0.00,,---,0.00,VWS V14.01,2013-07-19 07:48:00,
2013-07-19 03:53:00,81.3,70.6,29.75,NW,304,2.0,12.0,70,0.00,,---,0.00,VWS V14.01,2013-07-19 07:53:00,
2013-07-19 03:58:00,81.3,71.0,29.75,WSW,252,5.0,12.0,71,0.00,,---,0.00,VWS V14.01,2013-07-19 07:58:00,
2013-07-19 04:00:00,81.3,71.4,29.78,South,185,3.0,10.0,72,0.00,,---,0.00,VWS V14.01,2013-07-19 08:00:00,
2013-07-19 04:03:00,81.3,71.0,29.75,SSE,164,1.0,8.0,71,0.00,,---,0.00,VWS V14.01,2013-07-19 08:03:00,
2013-07-19 04:08:00,81.3,70.6,29.74,SW,220,9.0,10.0,70,0.00,,---,0.00,VWS V14.01,2013-07-19 08:08:00,
2013-07-19 04:13:00,81.5,70.8,29.74,West,278,5.0,15.0,70,0.00,,---,0.00,VWS V14.01,2013-07-19 08:13:00,
2013-07-19 04:18:00,81.5,70.8,29.74,SSW,203,4.0,15.0,70,0.00,,---,0.00,VWS V14.01,2013-07-19 08:18:00,
2013-07-19 04:23:00,81.5,70.4,29.74,West,268,0.0,15.0,69,0.00,,---,0.00,VWS V14.01,2013-07-19 08:23:00,
2013-07-19 04:28:00,81.7,70.6,29.73,WSW,248,4.0,19.0,69,0.00,,---,0.00,VWS V14.01,2013-07-19 08:28:00,
2013-07-19 04:30:00,81.1,71.2,29.77,SW,219,3.0,10.0,72,0.00,,---,0.00,VWS V14.01,2013-07-19 08:30:00,
2013-07-19 04:33:00,81.7,70.6,29.74,SSE,160,4.0,14.0,69,0.00,,---,0.00,VWS V14.01,2013-07-19 08:33:00,
2013-07-19 04:38:00,81.7,70.6,29.73,West,281,5.0,14.0,69,0.00,,---,0.00,VWS V14.01,2013-07-19 08:38:00,
2013-07-19 04:43:00,81.7,70.6,29.73,SW,231,4.0,14.0,69,0.00,,---,0.00,VWS V14.01,2013-07-19 08:43:00,
2013-07-19 04:48:00,81.7,70.6,29.73,South,186,5.0,16.0,69,0.00,,---,0.00,VWS V14.01,2013-07-19 08:48:00,
2013-07-19 04:53:00,81.7,70.6,29.73,SW,216,5.0,16.0,69,0.00,,---,0.00,VWS V14.01,2013-07-19 08:53:00,
2013-07-19 04:58:00,81.5,70.4,29.73,WSW,239,3.0,16.0,69,0.00,,---,0.00,VWS V14.01,2013-07-19 08:58:00,
2013-07-19 05:00:00,81.3,71.0,29.75,WSW,239,5.0,12.0,71,0.00,,---,0.00,VWS V14.01,2013-07-19 09:00:00,
2013-07-19 05:03:00,81.5,70.4,29.73,SSW,213,9.0,13.0,69,0.00,,---,0.00,VWS V14.01,2013-07-19 09:03:00,
2013-07-19 05:08:00,81.5,70.4,29.72,SSW,196,1.0,13.0,69,0.00,,---,0.00,VWS V14.01,2013-07-19 09:08:00,
2013-07-19 05:13:00,81.5,70.4,29.72,South,188,2.0,18.0,69,0.00,,---,0.00,VWS V14.01,2013-07-19 09:13:00,
2013-07-19 05:18:00,81.5,70.4,29.73,SW,233,6.0,18.0,69,0.00,,---,0.00,VWS V14.01,2013-07-19 09:18:00,
2013-07-19 05:23:00,81.5,70.4,29.72,WNW,295,3.0,18.0,69,0.00,,---,0.00,VWS V14.01,2013-07-19 09:23:00,
2013-07-19 05:28:00,81.5,70.4,29.72,West,277,6.0,18.0,69,0.00,,---,0.00,VWS V14.01,2013-07-19 09:28:00,
2013-07-19 05:30:00,81.7,70.6,29.73,South,185,11.0,19.0,69,0.00,,---,0.00,VWS V14.01,2013-07-19 09:30:00,
2013-07-19 05:33:00,81.7,70.6,29.72,SW,234,5.0,13.0,69,0.00,,---,0.00,VWS V14.01,2013-07-19 09:33:00,
2013-07-19 05:38:00,81.7,70.6,29.72,WSW,255,4.0,13.0,69,0.00,,---,0.00,VWS V14.01,2013-07-19 09:38:00,
2013-07-19 05:43:00,81.5,70.4,29.72,WSW,237,4.0,13.0,69,0.00,,---,0.00,VWS V14.01,2013-07-19 09:43:00,
2013-07-19 05:48:00,81.5,70.4,29.72,SSW,212,3.0,13.0,69,0.00,,---,0.00,VWS V14.01,2013-07-19 09:48:00,
2013-07-19 05:53:00,81.5,70.4,29.72,West,280,2.0,14.0,69,0.00,,---,0.00,VWS V14.01,2013-07-19 09:53:00,
2013-07-19 05:58:00,81.3,70.2,29.72,SW,233,2.0,14.0,69,0.00,,---,0.00,VWS V14.01,2013-07-19 09:58:00,
2013-07-19 06:00:00,81.5,70.4,29.73,SSE,160,4.0,16.0,69,0.00,,---,0.00,VWS V14.01,2013-07-19 10:00:00,
2013-07-19 06:03:00,81.3,70.2,29.72,WSW,242,5.0,9.0,69,0.00,,---,0.00,VWS V14.01,2013-07-19 10:03:00,
2013-07-19 06:08:00,81.1,70.0,29.72,West,266,5.0,11.0,69,0.00,,---,0.00,VWS V14.01,2013-07-19 10:08:00,
2013-07-19 06:13:00,81.1,70.4,29.72,South,190,2.0,17.0,70,0.00,,---,0.00,VWS V14.01,2013-07-19 10:13:00,
2013-07-19 06:18:00,81.1,70.0,29.72,WSW,255,9.0,17.0,69,0.00,,---,0.00,VWS V14.01,2013-07-19 10:18:00,
2013-07-19 06:23:00,81.1,70.0,29.71,WSW,242,10.0,17.0,69,0.00,,---,0.00,VWS V14.01,2013-07-19 10:23:00,
2013-07-19 06:28:00,81.1,70.4,29.72,West,267,7.0,17.0,70,0.00,,---,0.00,VWS V14.01,2013-07-19 10:28:00,
2013-07-19 06:30:00,81.5,70.4,29.73,SSW,199,1.0,18.0,69,0.00,,---,0.00,VWS V14.01,2013-07-19 10:30:00,
2013-07-19 06:33:00,81.1,70.4,29.71,WSW,239,6.0,11.0,70,0.00,,---,0.00,VWS V14.01,2013-07-19 10:33:00,
2013-07-19 06:38:00,81.3,70.6,29.72,South,184,2.0,11.0,70,0.00,,---,0.00,VWS V14.01,2013-07-19 10:38:00,
2013-07-19 06:43:00,81.3,70.6,29.71,SW,235,5.0,11.0,70,0.00,,---,0.00,VWS V14.01,2013-07-19 10:43:00,
2013-07-19 06:48:00,81.3,70.2,29.71,WSW,245,2.0,12.0,69,0.00,,---,0.00,VWS V14.01,2013-07-19 10:48:00,
2013-07-19 06:53:00,81.5,70.4,29.72,West,259,2.0,13.0,69,0.00,,---,0.00,VWS V14.01,2013-07-19 10:53:00,
2013-07-19 06:58:00,81.5,70.4,29.72,South,178,9.0,15.0,69,0.00,,---,0.00,VWS V14.01,2013-07-19 10:58:00,
2013-07-19 07:00:00,81.3,70.2,29.72,South,184,2.0,14.0,69,0.00,,---,0.00,VWS V14.01,2013-07-19 11:00:00,
2013-07-19 07:03:00,81.5,70.4,29.72,SW,222,2.0,7.0,69,0.00,,---,0.00,VWS V14.01,2013-07-19 11:03:00,
2013-07-19 07:08:00,81.3,70.2,29.72,SW,227,7.0,10.0,69,0.00,,---,0.00,VWS V14.01,2013-07-19 11:08:00,
2013-07-19 07:13:00,81.3,70.2,29.72,South,188,7.0,10.0,69,0.00,,---,0.00,VWS V14.01,2013-07-19 11:13:00,
2013-07-19 07:18:00,81.3,70.2,29.72,West,261,5.0,12.0,69,0.00,,---,0.00,VWS V14.01,2013-07-19 11:18:00,
2013-07-19 07:23:00,81.3,70.2,29.72,SSE,149,3.0,12.0,69,0.00,,---,0.00,VWS V14.01,2013-07-19 11:23:00,
2013-07-19 07:28:00,81.1,70.0,29.71,WSW,251,7.0,12.0,69,0.00,,---,0.00,VWS V14.01,2013-07-19 11:28:00,
2013-07-19 07:30:00,81.1,70.4,29.72,SSW,201,3.0,17.0,70,0.00,,---,0.00,VWS V14.01,2013-07-19 11:30:00,
2013-07-19 07:33:00,81.1,70.4,29.71,SSW,212,7.0,9.0,70,0.00,,---,0.00,VWS V14.01,2013-07-19 11:33:00,
2013-07-19 07:38:00,81.1,70.4,29.71,WSW,250,4.0,10.0,70,0.00,,---,0.00,VWS V14.01,2013-07-19 11:38:00,
2013-07-19 07:43:00,80.9,69.8,29.71,WSW,250,4.0,12.0,69,0.00,,---,0.00,VWS V14.01,2013-07-19 11:43:00,
2013-07-19 07:48:00,80.9,70.2,29.71,SW,232,6.0,13.0,70,0.00,,---,0.00,VWS V14.01,2013-07-19 11:48:00,
2013-07-19 07:53:00,80.9,70.2,29.70,WSW,241,3.0,13.0,70,0.00,,---,0.00,VWS V14.01,2013-07-19 11:53:00,
2013-07-19 07:58:00,80.9,69.8,29.70,SSW,209,8.0,13.0,69,0.00,,---,0.00,VWS V14.01,2013-07-19 11:58:00,
2013-07-19 08:00:00,81.5,70.4,29.72,WSW,251,4.0,15.0,69,0.00,,---,0.00,VWS V14.01,2013-07-19 12:00:00,
2013-07-19 08:03:00,80.9,70.2,29.70,SSW,199,4.0,12.0,70,0.00,,---,0.00,VWS V14.01,2013-07-19 12:03:00,
2013-07-19 08:08:00,80.9,69.8,29.70,SSE,156,2.0,15.0,69,0.00,,---,0.00,VWS V14.01,2013-07-19 12:08:00,
2013-07-19 08:13:00,80.9,70.2,29.69,WSW,250,9.0,15.0,70,0.00,,---,0.00,VWS V14.01,2013-07-19 12:13:00,
2013-07-19 08:18:00,80.9,70.2,29.69,South,179,8.0,15.0,70,0.00,,---,0.00,VWS V14.01,2013-07-19 12:18:00,
2013-07-19 08:23:00,81.1,70.0,29.69,SW,232,8.0,15.0,69,0.00,,---,0.00,VWS V14.01,2013-07-19 12:23:00,
2013-07-19 08:28:00,81.3,70.2,29.69,SSW,213,6.0,15.0,69,0.00,,---,0.00,VWS V14.01,2013-07-19 12:28:00,
2013-07-19 08:30:00,81.1,70.0,29.71,WNW,301,2.0,12.0,69,0.00,,---,0.00,VWS V14.01,2013-07-19 12:30:00,
2013-07-19 08:33:00,81.1,70.4,29.70,SSW,210,3.0,8.0,70,0.00,,---,0.00,VWS V14.01,2013-07-19 12:33:00,
2013-07-19 08:38:00,81.3,70.6,29.70,West,260,2.0,9.0,70,0.00,,---,0.00,VWS V14.01,2013-07-19 12:38:00,
2013-07-19 08:43:00,81.1,70.4,29.69,SSW,199,5.0,14.0,70,0.00,,---,0.00,VWS V14.01,2013-07-19 12:43:00,
2013-07-19 08:49:00,81.1,70.4,29.69,SE,140,3.0,15.0,70,0.00,,---,0.00,VWS V14.01,2013-07-19 12:49:00,
2013-07-19 08:54:00,81.1,70.4,29.70,West,274,4.0,15.0,70,0.00,,---,0.00,VWS V14.01,2013-07-19 12:54:00,
2013-07-19 08:59:00,81.1,70.4,29.70,South,178,3.0,15.0,70,0.00,,---,0.00,VWS V14.01,2013-07-19 12:59:00,
2013-07-19 09:00:00,80.9,70.2,29.70,South,178,5.0,13.0,70,0.00,,---,0.00,VWS V14.01,2013-07-19 13:00:00,
2013-07-19 09:04:00,81.1,70.4,29.70,West,270,7.0,15.0,70,0.00,,---,0.00,VWS V14.01,2013-07-19 13:04:00,
2013-07-19 09:09:00,80.9,70.2,29.70,West,266,5.0,15.0,70,0.00,,---,0.00,VWS V14.01,2013-07-19 13:09:00,
2013-07-19 09:13:00,81.1,70.4,29.70,WSW,254,7.0,18.0,70,0.00,,---,0.00,VWS V14.01,2013-07-19 13:13:00,
2013-07-19 09:19:00,81.3,70.2,29.70,WSW,245,2.0,18.0,69,0.00,,---,0.00,VWS V14.01,2013-07-19 13:19:00,
2013-07-19 09:24:00,81.3,70.6,29.70,WSW,239,6.0,21.0,70,0.00,,---,0.00,VWS V14.01,2013-07-19 13:24:00,
2013-07-19 09:26:00,81.3,70.2,29.69,WSW,252,10.0,21.0,69,0.00,,---,0.00,VWS V14.01,2013-07-19 13:26:00,
2013-07-19 09:30:00,81.3,70.2,29.69,WSW,237,1.0,15.0,69,0.00,,---,0.00,VWS V14.01,2013-07-19 13:30:00,
2013-07-19 09:31:00,81.3,70.2,29.70,South,185,3.0,9.0,69,0.00,,---,0.00,VWS V14.01,2013-07-19 13:31:00,
2013-07-19 09:36:00,81.1,70.4,29.70,SSW,210,4.0,14.0,70,0.00,,---,0.00,VWS V14.01,2013-07-19 13:36:00,
2013-07-19 09:41:00,80.7,70.0,29.71,WSW,243,6.0,14.0,70,0.00,,---,0.00,VWS V14.01,2013-07-19 13:41:00,
2013-07-19 09:46:00,80.2,71.2,29.71,WSW,245,6.0,16.0,74,0.04,,---,0.04,VWS V14.01,2013-07-19 13:46:00,
2013-07-19 09:51:00,77.3,69.9,29.70,SSW,197,7.0,16.0,78,0.08,,---,0.08,VWS V14.01,2013-07-19 13:51:00,
2013-07-19 09:56:00,75.8,69.9,29.70,West,278,2.0,16.0,82,0.08,,---,0.08,VWS V14.01,2013-07-19 13:56:00,
2013-07-19 10:00:00,81.1,70.4,29.70,SW,236,6.0,15.0,70,0.00,,---,0.00,VWS V14.01,2013-07-19 14:00:00,
2013-07-19 10:01:00,75.6,70.8,29.70,SSW,193,2.0,5.0,85,0.08,,---,0.08,VWS V14.01,2013-07-19 14:01:00,
2013-07-19 10:06:00,75.6,71.5,29.70,South,191,1.0,5.0,87,0.08,,---,0.00,VWS V14.01,2013-07-19 14:06:00,
2013-07-19 10:11:00,76.0,71.5,29.70,WSW,238,4.0,8.0,86,0.08,,---,0.08,VWS V14.01,2013-07-19 14:11:00,
2013-07-19 10:16:00,76.2,71.0,29.70,South,180,2.0,8.0,84,0.08,,---,0.08,VWS V14.01,2013-07-19 14:16:00,
2013-07-19 10:21:00,76.4,71.2,29.70,SW,219,4.0,9.0,84,0.08,,---,0.08,VWS V14.01,2013-07-19 14:21:00,
2013-07-19 10:26:00,76.7,71.2,29.72,NNW,344,5.0,11.0,83,0.08,,---,0.08,VWS V14.01,2013-07-19 14:26:00,
2013-07-19 10:30:00,81.3,70.2,29.70,WSW,239,9.0,21.0,69,0.00,,---,0.00,VWS V14.01,2013-07-19 14:30:00,
2013-07-19 10:31:00,76.0,69.8,29.72,SE,124,11.0,14.0,81,0.11,,---,0.11,VWS V14.01,2013-07-19 14:31:00,
2013-07-19 10:36:00,73.9,69.1,29.71,West,259,5.0,17.0,85,0.19,,---,0.19,VWS V14.01,2013-07-19 14:36:00,
2013-07-19 10:41:00,72.7,68.9,29.70,WNW,282,4.0,17.0,88,0.26,,---,0.26,VWS V14.01,2013-07-19 14:41:00,
2013-07-19 10:46:00,72.5,69.1,29.70,WSW,255,7.0,17.0,89,0.29,,---,0.29,VWS V14.01,2013-07-19 14:46:00,
2013-07-19 10:51:00,72.7,69.9,29.69,SSW,211,3.0,17.0,91,0.31,,---,0.31,VWS V14.01,2013-07-19 14:51:00,
2013-07-19 10:56:00,72.7,69.9,29.69,SSW,197,7.0,17.0,91,0.31,,---,0.31,VWS V14.01,2013-07-19 14:56:00,
2013-07-19 11:00:00,75.6,70.4,29.70,WSW,254,5.0,16.0,84,0.08,,---,0.08,VWS V14.01,2013-07-19 15:00:00,
2013-07-19 11:01:00,72.7,69.6,29.70,West,265,10.0,14.0,90,0.23,,---,0.31,VWS V14.01,2013-07-19 15:01:00,
2013-07-19 11:06:00,72.7,69.3,29.70,West,262,9.0,16.0,89,0.23,,---,0.31,VWS V14.01,2013-07-19 15:06:00,
2013-07-19 11:11:00,73.1,69.7,29.70,South,184,5.0,16.0,89,0.23,,---,0.31,VWS V14.01,2013-07-19 15:11:00,
2013-07-19 11:16:00,73.4,70.0,29.69,SSW,192,7.0,16.0,89,0.23,,---,0.31,VWS V14.01,2013-07-19 15:16:00,
2013-07-19 11:21:00,74.1,71.3,29.69,South,177,6.0,16.0,91,0.23,,---,0.31,VWS V14.01,2013-07-19 15:21:00,
2013-07-19 11:26:00,74.3,70.8,29.69,SSW,211,0.0,16.0,89,0.23,,---,0.31,VWS V14.01,2013-07-19 15:26:00,
2013-07-19 11:30:00,76.4,70.9,29.73,NW,311,8.0,13.0,83,0.09,,---,0.09,VWS V14.01,2013-07-19 15:30:00,
2013-07-19 11:31:00,74.8,71.7,29.69,WSW,243,3.0,7.0,90,0.22,,---,0.31,VWS V14.01,2013-07-19 15:31:00,
2013-07-19 11:36:00,75.3,71.8,29.68,South,185,5.0,7.0,89,0.22,,---,0.31,VWS V14.01,2013-07-19 15:36:00,
2013-07-19 11:41:00,76.0,72.5,29.68,SSW,197,2.0,7.0,89,0.22,,---,0.31,VWS V14.01,2013-07-19 15:41:00,
2013-07-19 11:46:00,76.7,72.9,29.68,SSW,205,1.0,7.0,88,0.22,,---,0.31,VWS V14.01,2013-07-19 15:46:00,
2013-07-19 11:51:00,76.9,72.7,29.69,SE,135,1.0,7.0,87,0.22,,---,0.31,VWS V14.01,2013-07-19 15:51:00,
2013-07-19 11:56:00,77.4,73.2,29.69,West,281,3.0,8.0,87,0.22,,---,0.31,VWS V14.01,2013-07-19 15:56:00,
2013-07-19 12:00:00,72.7,69.6,29.70,West,272,7.0,17.0,90,0.31,,---,0.31,VWS V14.01,2013-07-19 16:00:00,
2013-07-19 12:01:00,78.3,73.8,29.68,SW,215,5.0,8.0,86,0.00,,---,0.31,VWS V14.01,2013-07-19 16:01:00,
2013-07-19 12:06:00,79.1,73.5,29.68,SSW,203,6.0,11.0,83,0.00,,---,0.31,VWS V14.01,2013-07-19 16:06:00,
2013-07-19 12:11:00,79.6,72.9,29.68,South,179,3.0,11.0,80,0.00,,---,0.31,VWS V14.01,2013-07-19 16:11:00,
2013-07-19 12:16:00,80.0,72.9,29.68,West,261,12.0,14.0,79,0.00,,---,0.31,VWS V14.01,2013-07-19 16:16:00,
2013-07-19 12:21:00,80.0,73.3,29.68,SW,229,8.0,14.0,80,0.00,,---,0.31,VWS V14.01,2013-07-19 16:21:00,
2013-07-19 12:26:00,80.2,73.1,29.68,WNW,295,5.0,14.0,79,0.00,,---,0.31,VWS V14.01,2013-07-19 16:26:00,
2013-07-19 12:30:00,74.6,71.5,29.69,SW,220,3.0,16.0,90,0.23,,---,0.31,VWS V14.01,2013-07-19 16:30:00,
2013-07-19 12:31:00,80.6,73.1,29.69,SW,225,5.0,8.0,78,0.00,,---,0.31,VWS V14.01,2013-07-19 16:31:00,
2013-07-19 12:36:00,80.6,72.7,29.69,SW,233,4.0,11.0,77,0.00,,---,0.31,VWS V14.01,2013-07-19 16:36:00,
2013-07-19 12:41:00,80.9,72.2,29.69,SSE,159,4.0,18.0,75,0.00,,---,0.31,VWS V14.01,2013-07-19 16:41:00,
2013-07-19 12:46:00,81.1,72.0,29.69,West,259,8.0,18.0,74,0.00,,---,0.31,VWS V14.01,2013-07-19 16:46:00,
2013-07-19 12:51:00,81.3,72.2,29.69,West,272,3.0,18.0,74,0.00,,---,0.31,VWS V14.01,2013-07-19 16:51:00,
2013-07-19 12:56:00,81.5,72.0,29.69,WSW,254,14.0,18.0,73,0.00,,---,0.31,VWS V14.01,2013-07-19 16:56:00,
2013-07-19 13:00:00,78.1,73.9,29.69,WSW,240,2.0,8.0,87,0.22,,---,0.31,VWS V14.01,2013-07-19 17:00:00,
2013-07-19 13:01:00,81.5,71.6,29.69,West,274,7.0,16.0,72,0.00,,---,0.31,VWS V14.01,2013-07-19 17:01:00,
2013-07-19 13:06:00,81.7,72.2,29.70,SSW,207,3.0,19.0,73,0.00,,---,0.31,VWS V14.01,2013-07-19 17:06:00,
2013-07-19 13:11:00,82.2,71.9,29.69,NW,312,6.0,19.0,71,0.00,,---,0.31,VWS V14.01,2013-07-19 17:11:00,
2013-07-19 13:16:00,82.3,72.0,29.69,SSW,210,8.0,19.0,71,0.00,,---,0.31,VWS V14.01,2013-07-19 17:16:00,
2013-07-19 13:21:00,82.4,71.2,29.69,WNW,302,7.0,22.0,69,0.00,,---,0.31,VWS V14.01,2013-07-19 17:21:00,
2013-07-19 13:26:00,82.6,71.4,29.69,SW,222,2.0,22.0,69,0.00,,---,0.31,VWS V14.01,2013-07-19 17:26:00,
2013-07-19 13:30:00,80.6,73.5,29.69,West,260,8.0,15.0,79,0.00,,---,0.31,VWS V14.01,2013-07-19 17:30:00,
2013-07-19 13:31:00,82.8,71.6,29.69,WSW,252,4.0,20.0,69,0.00,,---,0.31,VWS V14.01,2013-07-19 17:31:00,
2013-07-19 13:36:00,82.8,71.6,29.69,WSW,242,11.0,20.0,69,0.00,,---,0.31,VWS V14.01,2013-07-19 17:36:00,
2013-07-19 13:41:00,82.6,71.4,29.69,West,259,11.0,20.0,69,0.00,,---,0.31,VWS V14.01,2013-07-19 17:41:00,
2013-07-19 13:46:00,82.4,71.2,29.69,WSW,255,8.0,20.0,69,0.00,,---,0.31,VWS V14.01,2013-07-19 17:46:00,
2013-07-19 13:51:00,82.2,71.0,29.69,WNW,295,9.0,20.0,69,0.00,,---,0.31,VWS V14.01,2013-07-19 17:51:00,
2013-07-19 13:56:00,82.6,71.4,29.70,SW,229,2.0,20.0,69,0.00,,---,0.31,VWS V14.01,2013-07-19 17:56:00,
2013-07-19 14:00:00,81.5,71.6,29.69,WSW,239,5.0,23.0,72,0.00,,---,0.31,VWS V14.01,2013-07-19 18:00:00,
2013-07-19 14:01:00,82.8,71.6,29.70,West,259,3.0,12.0,69,0.00,,---,0.31,VWS V14.01,2013-07-19 18:01:00,
2013-07-19 14:06:00,82.7,71.5,29.69,West,281,9.0,13.0,69,0.00,,---,0.31,VWS V14.01,2013-07-19 18:06:00,
2013-07-19 14:11:00,82.6,71.4,29.70,West,277,5.0,19.0,69,0.00,,---,0.31,VWS V14.01,2013-07-19 18:11:00,
2013-07-19 14:16:00,82.6,71.0,29.70,West,269,7.0,21.0,68,0.00,,---,0.31,VWS V14.01,2013-07-19 18:16:00,
2013-07-19 14:21:00,83.0,71.8,29.70,East,79,4.0,21.0,69,0.00,,---,0.31,VWS V14.01,2013-07-19 18:21:00,
2013-07-19 14:26:00,83.4,72.2,29.70,WSW,248,10.0,21.0,69,0.00,,---,0.31,VWS V14.01,2013-07-19 18:26:00,
2013-07-19 14:30:00,82.6,71.4,29.69,WNW,282,2.0,22.0,69,0.00,,---,0.31,VWS V14.01,2013-07-19 18:30:00,
2013-07-19 14:31:00,83.6,71.9,29.70,SW,228,4.0,13.0,68,0.00,,---,0.31,VWS V14.01,2013-07-19 18:31:00,
2013-07-19 14:36:00,83.6,71.5,29.70,WSW,240,7.0,23.0,67,0.00,,---,0.31,VWS V14.01,2013-07-19 18:36:00,
2013-07-19 14:41:00,83.8,72.1,29.69,SW,233,5.0,23.0,68,0.00,,---,0.31,VWS V14.01,2013-07-19 18:41:00,
2013-07-19 14:46:00,84.0,71.9,29.70,South,187,7.0,23.0,67,0.00,,---,0.31,VWS V14.01,2013-07-19 18:46:00,
2013-07-19 14:51:00,84.2,71.6,29.69,WSW,252,6.0,23.0,66,0.00,,---,0.31,VWS V14.01,2013-07-19 18:51:00,
2013-07-19 14:56:00,84.0,71.9,29.69,SSE,158,4.0,23.0,67,0.00,,---,0.31,VWS V14.01,2013-07-19 18:56:00,
2013-07-19 15:00:00,82.8,71.2,29.70,West,279,12.0,20.0,68,0.00,,---,0.31,VWS V14.01,2013-07-19 19:00:00,
2013-07-19 15:01:00,84.4,72.2,29.68,WNW,292,4.0,11.0,67,0.00,,---,0.31,VWS V14.01,2013-07-19 19:01:00,
2013-07-19 15:06:00,84.6,72.4,29.68,West,261,8.0,19.0,67,0.00,,---,0.31,VWS V14.01,2013-07-19 19:06:00,
2013-07-19 15:07:00,84.6,72.0,29.68,West,277,10.0,19.0,66,0.00,,---,0.31,VWS V14.01,2013-07-19 19:07:00,
2013-07-19 15:12:00,84.2,71.6,29.69,WSW,249,2.0,19.0,66,0.00,,---,0.31,VWS V14.01,2013-07-19 19:12:00,
2013-07-19 15:17:00,84.4,71.8,29.69,SW,235,14.0,19.0,66,0.00,,---,0.31,VWS V14.01,2013-07-19 19:17:00,
2013-07-19 15:22:00,84.6,71.6,29.69,WNW,282,8.0,19.0,65,0.00,,---,0.31,VWS V14.01,2013-07-19 19:22:00,
2013-07-19 15:27:00,84.8,71.7,29.69,SW,234,5.0,19.0,65,0.00,,---,0.31,VWS V14.01,2013-07-19 19:27:00,
2013-07-19 15:30:00,83.6,71.9,29.70,ESE,105,6.0,21.0,68,0.00,,---,0.31,VWS V14.01,2013-07-19 19:30:00,
2013-07-19 15:32:00,85.2,72.1,29.69,SW,216,4.0,17.0,65,0.00,,---,0.31,VWS V14.01,2013-07-19 19:32:00,
2013-07-19 15:37:00,85.6,72.5,29.69,West,261,7.0,17.0,65,0.00,,---,0.31,VWS V14.01,2013-07-19 19:37:00,
2013-07-19 15:42:00,85.6,71.1,29.70,WNW,303,4.0,17.0,62,0.00,,---,0.31,VWS V14.01,2013-07-19 19:42:00,
2013-07-19 15:47:00,84.6,71.6,29.70,West,267,8.0,17.0,65,0.00,,---,0.31,VWS V14.01,2013-07-19 19:47:00,
2013-07-19 15:52:00,83.6,71.1,29.70,WNW,293,6.0,21.0,66,0.00,,---,0.31,VWS V14.01,2013-07-19 19:52:00,
2013-07-19 15:57:00,81.7,71.0,29.70,WNW,293,5.0,21.0,70,0.00,,---,0.31,VWS V14.01,2013-07-19 19:57:00,
2013-07-19 16:00:00,84.2,71.6,29.69,WSW,245,9.0,23.0,66,0.00,,---,0.31,VWS V14.01,2013-07-19 20:00:00,
2013-07-19 16:02:00,80.6,71.2,29.70,NW,325,2.0,14.0,73,0.00,,---,0.31,VWS V14.01,2013-07-19 20:02:00,
2013-07-19 16:07:00,81.1,71.2,29.70,WSW,256,9.0,14.0,72,0.00,,---,0.31,VWS V14.01,2013-07-19 20:07:00,
2013-07-19 16:12:00,81.7,70.1,29.70,SW,231,6.0,18.0,68,0.00,,---,0.31,VWS V14.01,2013-07-19 20:12:00,
2013-07-19 16:17:00,81.8,70.2,29.70,WSW,258,4.0,18.0,68,0.00,,---,0.31,VWS V14.01,2013-07-19 20:17:00,
2013-07-19 16:22:00,81.9,69.4,29.70,NW,305,4.0,18.0,66,0.00,,---,0.31,VWS V14.01,2013-07-19 20:22:00,
2013-07-19 16:27:00,81.5,68.6,29.70,West,278,6.0,18.0,65,0.00,,---,0.31,VWS V14.01,2013-07-19 20:27:00,
2013-07-19 16:30:00,85.0,71.9,29.69,WNW,283,3.0,19.0,65,0.00,,---,0.31,VWS V14.01,2013-07-19 20:30:00,
2013-07-19 16:32:00,81.1,68.7,29.69,WNW,284,10.0,11.0,66,0.00,,---,0.31,VWS V14.01,2013-07-19 20:32:00,
2013-07-19 16:37:00,80.9,68.5,29.70,West,273,9.0,12.0,66,0.00,,---,0.31,VWS V14.01,2013-07-19 20:37:00,
2013-07-19 16:42:00,80.5,69.0,29.70,West,264,4.0,15.0,68,0.00,,---,0.31,VWS V14.01,2013-07-19 20:42:00,
2013-07-19 16:47:00,80.0,68.9,29.70,North,352,3.0,15.0,69,0.00,,---,0.31,VWS V14.01,2013-07-19 20:47:00,
2013-07-19 16:52:00,80.0,69.8,29.70,West,270,4.0,15.0,71,0.00,,---,0.31,VWS V14.01,2013-07-19 20:52:00,
2013-07-19 16:57:00,80.0,69.3,29.70,West,259,2.0,15.0,70,0.00,,---,0.31,VWS V14.01,2013-07-19 20:57:00,
2013-07-19 17:00:00,80.9,70.6,29.70,West,280,1.0,21.0,71,0.00,,---,0.31,VWS V14.01,2013-07-19 21:00:00,
2013-07-19 17:02:00,80.2,68.7,29.70,WNW,290,5.0,9.0,68,0.00,,---,0.31,VWS V14.01,2013-07-19 21:02:00,
2013-07-19 17:07:00,80.0,68.9,29.70,SW,235,3.0,10.0,69,0.00,,---,0.31,VWS V14.01,2013-07-19 21:07:00,
2013-07-19 17:12:00,79.6,68.1,29.70,West,276,1.0,10.0,68,0.00,,---,0.31,VWS V14.01,2013-07-19 21:12:00,
2013-07-19 17:17:00,80.0,68.1,29.71,West,280,7.0,12.0,67,0.00,,---,0.31,VWS V14.01,2013-07-19 21:17:00,
2013-07-19 17:22:00,80.7,68.3,29.71,NW,317,3.0,12.0,66,0.00,,---,0.31,VWS V14.01,2013-07-19 21:22:00,
2013-07-19 17:27:00,80.7,67.8,29.71,NNW,334,2.0,12.0,65,0.00,,---,0.31,VWS V14.01,2013-07-19 21:27:00,
2013-07-19 17:30:00,81.1,68.7,29.70,West,273,6.0,18.0,66,0.00,,---,0.31,VWS V14.01,2013-07-19 21:30:00,
2013-07-19 17:32:00,80.9,68.0,29.71,WNW,302,3.0,9.0,65,0.00,,---,0.31,VWS V14.01,2013-07-19 21:32:00,
2013-07-19 17:37:00,80.6,67.8,29.71,WNW,296,2.0,9.0,65,0.00,,---,0.31,VWS V14.01,2013-07-19 21:37:00,
2013-07-19 17:42:00,80.6,66.8,29.71,West,277,5.0,13.0,63,0.00,,---,0.31,VWS V14.01,2013-07-19 21:42:00,
2013-07-19 17:47:00,80.7,67.4,29.72,WNW,300,4.0,13.0,64,0.00,,---,0.31,VWS V14.01,2013-07-19 21:47:00,
2013-07-19 17:52:00,80.4,66.2,29.72,North,5,7.0,13.0,62,0.00,,---,0.31,VWS V14.01,2013-07-19 21:52:00,
2013-07-19 17:58:00,79.2,66.4,29.72,North,353,7.0,13.0,65,0.00,,---,0.31,VWS V14.01,2013-07-19 21:58:00,
2013-07-19 18:00:00,80.2,69.5,29.70,SSW,213,3.0,15.0,70,0.00,,---,0.31,VWS V14.01,2013-07-19 22:00:00,
2013-07-19 18:03:00,78.3,66.9,29.72,NNW,330,6.0,15.0,68,0.00,,---,0.31,VWS V14.01,2013-07-19 22:03:00,
2013-07-19 18:08:00,77.6,66.6,29.73,North,355,12.0,16.0,69,0.00,,---,0.31,VWS V14.01,2013-07-19 22:08:00,
2013-07-19 18:13:00,76.9,66.8,29.73,North,3,11.0,16.0,71,0.00,,---,0.31,VWS V14.01,2013-07-19 22:13:00,
2013-07-19 18:18:00,76.5,66.8,29.73,North,356,7.0,16.0,72,0.00,,---,0.31,VWS V14.01,2013-07-19 22:18:00,
2013-07-19 18:23:00,76.9,67.6,29.73,NNE,17,8.0,16.0,73,0.00,,---,0.31,VWS V14.01,2013-07-19 22:23:00,
2013-07-19 18:28:00,76.4,67.1,29.73,NNW,340,3.0,16.0,73,0.00,,---,0.31,VWS V14.01,2013-07-19 22:28:00,
2013-07-19 18:30:00,80.7,68.7,29.71,WNW,295,3.0,12.0,67,0.00,,---,0.31,VWS V14.01,2013-07-19 22:30:00,
2013-07-19 18:33:00,76.0,67.5,29.73,North,3,7.0,12.0,75,0.00,,---,0.31,VWS V14.01,2013-07-19 22:33:00,
2013-07-19 18:38:00,75.8,67.3,29.73,NNW,348,8.0,15.0,75,0.00,,---,0.31,VWS V14.01,2013-07-19 22:38:00,
2013-07-19 18:43:00,76.0,67.9,29.72,NNW,333,9.0,15.0,76,0.00,,---,0.31,VWS V14.01,2013-07-19 22:43:00,
2013-07-19 18:48:00,75.8,67.3,29.73,North,358,8.0,15.0,75,0.00,,---,0.31,VWS V14.01,2013-07-19 22:48:00,
2013-07-19 18:53:00,75.6,67.5,29.73,NNW,337,13.0,15.0,76,0.00,,---,0.31,VWS V14.01,2013-07-19 22:53:00,
2013-07-19 18:58:00,75.1,66.6,29.73,North,2,5.0,15.0,75,0.00,,---,0.31,VWS V14.01,2013-07-19 22:58:00,
2013-07-19 19:00:00,78.9,66.6,29.72,North,0,2.0,13.0,66,0.00,,---,0.31,VWS V14.01,2013-07-19 23:00:00,
2013-07-19 19:03:00,74.9,67.2,29.72,North,9,8.0,13.0,77,0.00,,---,0.31,VWS V14.01,2013-07-19 23:03:00,
2013-07-19 19:08:00,75.3,68.0,29.72,North,10,6.0,13.0,78,0.00,,---,0.31,VWS V14.01,2013-07-19 23:08:00,
2013-07-19 19:13:00,74.9,67.2,29.73,NNW,341,7.0,13.0,77,0.00,,---,0.31,VWS V14.01,2013-07-19 23:13:00,
2013-07-19 19:18:00,74.3,67.0,29.73,North,0,5.0,13.0,78,0.00,,---,0.31,VWS V14.01,2013-07-19 23:18:00,
2013-07-19 19:23:00,74.4,67.8,29.74,North,7,3.0,13.0,80,0.00,,---,0.31,VWS V14.01,2013-07-19 23:23:00,
2013-07-19 19:28:00,74.8,67.1,29.73,NNW,348,5.0,13.0,77,0.00,,---,0.31,VWS V14.01,2013-07-19 23:28:00,
2013-07-19 19:30:00,76.2,67.3,29.73,North,7,6.0,16.0,74,0.00,,---,0.31,VWS V14.01,2013-07-19 23:30:00,
2013-07-19 19:33:00,74.9,67.6,29.74,North,7,5.0,11.0,78,0.00,,---,0.31,VWS V14.01,2013-07-19 23:33:00,
2013-07-19 19:38:00,74.9,67.2,29.74,NNW,346,10.0,11.0,77,0.00,,---,0.31,VWS V14.01,2013-07-19 23:38:00,
2013-07-19 19:43:00,75.0,67.3,29.74,North,0,5.0,11.0,77,0.00,,---,0.31,VWS V14.01,2013-07-19 23:43:00,
2013-07-19 19:48:00,74.8,67.5,29.74,North,0,4.0,11.0,78,0.00,,---,0.31,VWS V14.01,2013-07-19 23:48:00,
2013-07-19 19:53:00,74.6,67.3,29.74,NNE,12,4.0,11.0,78,0.00,,---,0.31,VWS V14.01,2013-07-19 23:53:00,
2013-07-19 19:58:00,74.3,67.0,29.75,North,2,5.0,11.0,78,0.00,,---,0.31,VWS V14.01,2013-07-19 23:58:00,
2013-07-19 20:00:00,74.9,67.2,29.73,NNW,347,5.0,15.0,77,0.00,,---,0.31,VWS V14.01,2013-07-20 00:00:00,
2013-07-19 20:03:00,74.1,66.4,29.75,North,1,5.0,9.0,77,0.00,,---,0.31,VWS V14.01,2013-07-20 00:03:00,
2013-07-19 20:08:00,73.7,66.4,29.75,North,0,6.0,9.0,78,0.00,,---,0.31,VWS V14.01,2013-07-20 00:08:00,
2013-07-19 20:13:00,73.4,66.9,29.75,North,0,2.0,9.0,80,0.00,,---,0.31,VWS V14.01,2013-07-20 00:13:00,
2013-07-19 20:18:00,73.3,66.8,29.75,North,0,3.0,9.0,80,0.00,,---,0.31,VWS V14.01,2013-07-20 00:18:00,
2013-07-19 20:23:00,73.2,66.7,29.75,North,0,2.0,9.0,80,0.00,,---,0.31,VWS V14.01,2013-07-20 00:23:00,
2013-07-19 20:28:00,73.1,66.6,29.75,North,0,3.0,9.0,80,0.00,,---,0.31,VWS V14.01,2013-07-20 00:28:00,
2013-07-19 20:30:00,75.0,67.7,29.73,North,352,7.0,13.0,78,0.00,,---,0.31,VWS V14.01,2013-07-20 00:30:00,
2013-07-19 20:33:00,73.1,66.2,29.75,NNE,13,5.0,7.0,79,0.00,,---,0.31,VWS V14.01,2013-07-20 00:33:00,
2013-07-19 20:38:00,72.9,65.3,29.75,North,0,6.0,7.0,77,0.00,,---,0.31,VWS V14.01,2013-07-20 00:38:00,
2013-07-19 20:43:00,72.9,64.9,29.75,North,357,5.0,8.0,76,0.00,,---,0.31,VWS V14.01,2013-07-20 00:43:00,
2013-07-19 20:48:00,72.9,64.5,29.75,NNE,23,4.0,8.0,75,0.00,,---,0.31,VWS V14.01,2013-07-20 00:48:00,
2013-07-19 20:53:00,72.9,64.1,29.75,North,0,5.0,8.0,74,0.00,,---,0.31,VWS V14.01,2013-07-20 00:53:00,
2013-07-19 20:58:00,72.7,63.9,29.75,North,0,2.0,8.0,74,0.00,,---,0.31,VWS V14.01,2013-07-20 00:58:00,
2013-07-19 21:00:00,74.3,66.6,29.75,North,6,4.0,11.0,77,0.00,,---,0.31,VWS V14.01,2013-07-20 01:00:00,
2013-07-19 21:03:00,72.4,63.7,29.75,North,0,2.0,4.0,74,0.00,,---,0.31,VWS V14.01,2013-07-20 01:03:00,
2013-07-19 21:08:00,72.2,63.5,29.76,North,0,3.0,4.0,74,0.00,,---,0.31,VWS V14.01,2013-07-20 01:08:00,
2013-07-19 21:13:00,72.1,63.4,29.76,North,0,4.0,4.0,74,0.00,,---,0.31,VWS V14.01,2013-07-20 01:13:00,
2013-07-19 21:18:00,72.0,63.3,29.76,North,0,3.0,5.0,74,0.00,,---,0.31,VWS V14.01,2013-07-20 01:18:00,
2013-07-19 21:23:00,71.8,63.1,29.75,North,0,3.0,5.0,74,0.00,,---,0.31,VWS V14.01,2013-07-20 01:23:00,
2013-07-19 21:28:00,71.7,63.0,29.76,North,0,2.0,5.0,74,0.00,,---,0.31,VWS V14.01,2013-07-20 01:28:00,
2013-07-19 21:30:00,73.1,66.2,29.75,North,0,4.0,9.0,79,0.00,,---,0.31,VWS V14.01,2013-07-20 01:30:00,
2013-07-19 21:33:00,71.4,62.7,29.76,North,0,3.0,4.0,74,0.00,,---,0.31,VWS V14.01,2013-07-20 01:33:00,
2013-07-19 21:38:00,71.0,62.3,29.76,North,0,0.0,5.0,74,0.00,,---,0.31,VWS V14.01,2013-07-20 01:38:00,
2013-07-19 21:43:00,70.8,62.1,29.76,North,0,0.0,5.0,74,0.00,,---,0.31,VWS V14.01,2013-07-20 01:43:00,
2013-07-19 21:48:00,70.6,62.3,29.76,North,0,2.0,5.0,75,0.00,,---,0.31,VWS V14.01,2013-07-20 01:48:00,
2013-07-19 21:53:00,70.3,62.4,29.76,North,0,1.0,5.0,76,0.00,,---,0.31,VWS V14.01,2013-07-20 01:53:00,
2013-07-19 21:58:00,70.1,62.2,29.76,North,0,2.0,5.0,76,0.00,,---,0.31,VWS V14.01,2013-07-20 01:58:00,
2013-07-19 22:00:00,72.5,63.8,29.75,North,0,1.0,8.0,74,0.00,,---,0.31,VWS V14.01,2013-07-20 02:00:00,
2013-07-19 22:03:00,69.8,62.3,29.76,North,0,2.0,3.0,77,0.00,,---,0.31,VWS V14.01,2013-07-20 02:03:00,
2013-07-19 22:08:00,69.7,61.4,29.77,North,0,2.0,4.0,75,0.00,,---,0.31,VWS V14.01,2013-07-20 02:08:00,
2013-07-19 22:13:00,69.7,61.4,29.76,North,0,2.0,4.0,75,0.00,,---,0.31,VWS V14.01,2013-07-20 02:13:00,
2013-07-19 22:18:00,69.7,61.4,29.77,North,0,3.0,4.0,75,0.00,,---,0.31,VWS V14.01,2013-07-20 02:18:00,
2013-07-19 22:23:00,69.7,61.4,29.77,North,0,2.0,4.0,75,0.00,,---,0.31,VWS V14.01,2013-07-20 02:23:00,
2013-07-19 22:28:00,69.7,61.8,29.78,North,0,2.0,4.0,76,0.00,,---,0.31,VWS V14.01,2013-07-20 02:28:00,
2013-07-19 22:30:00,71.7,63.0,29.75,North,0,3.0,5.0,74,0.00,,---,0.31,VWS V14.01,2013-07-20 02:30:00,
2013-07-19 22:33:00,69.7,61.4,29.78,North,0,2.0,4.0,75,0.00,,---,0.31,VWS V14.01,2013-07-20 02:33:00,
2013-07-19 22:38:00,69.8,61.5,29.78,North,0,4.0,5.0,75,0.00,,---,0.31,VWS V14.01,2013-07-20 02:38:00,
2013-07-19 22:43:00,69.8,61.2,29.78,North,0,4.0,5.0,74,0.00,,---,0.31,VWS V14.01,2013-07-20 02:43:00,
2013-07-19 22:48:00,70.0,61.3,29.77,North,0,3.0,6.0,74,0.00,,---,0.31,VWS V14.01,2013-07-20 02:48:00,
2013-07-19 22:53:00,69.8,61.5,29.77,North,0,2.0,6.0,75,0.00,,---,0.31,VWS V14.01,2013-07-20 02:53:00,
2013-07-19 22:58:00,69.5,61.6,29.77,North,0,5.0,6.0,76,0.00,,---,0.31,VWS V14.01,2013-07-20 02:58:00,
2013-07-19 23:00:00,70.0,62.5,29.76,North,0,2.0,5.0,77,0.00,,---,0.31,VWS V14.01,2013-07-20 03:00:00,
2013-07-19 23:03:00,69.2,61.7,29.77,North,0,3.0,5.0,77,0.00,,---,0.31,VWS V14.01,2013-07-20 03:03:00,
2013-07-19 23:09:00,68.7,61.2,29.77,North,0,3.0,5.0,77,0.00,,---,0.31,VWS V14.01,2013-07-20 03:09:00,
2013-07-19 23:14:00,68.2,61.1,29.77,North,0,2.0,5.0,78,0.00,,---,0.31,VWS V14.01,2013-07-20 03:14:00,
2013-07-19 23:19:00,67.7,61.0,29.78,North,0,1.0,5.0,79,0.00,,---,0.31,VWS V14.01,2013-07-20 03:19:00,
2013-07-19 23:24:00,67.4,60.7,29.78,North,0,0.0,5.0,79,0.00,,---,0.31,VWS V14.01,2013-07-20 03:24:00,
2013-07-19 23:29:00,67.2,60.5,29.77,North,0,1.0,5.0,79,0.00,,---,0.31,VWS V14.01,2013-07-20 03:29:00,
2013-07-19 23:30:00,69.7,61.8,29.78,North,0,3.0,4.0,76,0.00,,---,0.31,VWS V14.01,2013-07-20 03:30:00,
2013-07-19 23:34:00,66.8,60.4,29.77,North,0,0.0,1.0,80,0.00,,---,0.31,VWS V14.01,2013-07-20 03:34:00,
2013-07-19 23:39:00,66.4,60.0,29.77,North,0,1.0,2.0,80,0.00,,---,0.31,VWS V14.01,2013-07-20 03:39:00,
2013-07-19 23:44:00,65.9,59.9,29.77,North,0,1.0,3.0,81,0.00,,---,0.31,VWS V14.01,2013-07-20 03:44:00,
2013-07-19 23:49:00,65.7,60.4,29.77,North,0,1.0,3.0,83,0.00,,---,0.31,VWS V14.01,2013-07-20 03:49:00,
2013-07-19 23:54:00,65.4,60.5,29.78,North,0,2.0,3.0,84,0.00,,---,0.31,VWS V14.01,2013-07-20 03:54:00,
2013-07-19 23:59:00,65.2,60.2,29.78,North,0,2.0,3.0,84,0.00,,---,0.31,VWS V14.01,2013-07-20 03:59:00,